Terminal Aerodrome Forecast
Issued by NWS

Home | Current Version | Previous Version | Text Only | Print | Product List | Glossary On
Versions: 1 2 3 4 5 6 7 8 9 10 11 12 13 14 15 16 17 18 19 20 21
476
FTAK31 PAJN 170051 AAA
TAFAKT
TAF AMD
PAKT 170051Z 1701/1724 13015G25KT P6SM -SHRA FEW009 BKN015 OVC025
      WS010/15040KT
      TEMPO 1701/1703 4SM -SHRA BR
     FM170300 15010KT P6SM -SHRA OVC015 WS010/15030KT
     FM170600 14010KT P6SM VCSH OVC025
     FM171900 34005KT P6SM -RA OVC035
      AMD LTD TO CLD VIS AND WIND 1706/1715=

USA.gov is the U.S. government's official web portal to all federal, state and local government web resources and services.